Time;durP1;ratioP1;P1;durP2;ratioP2;P2;SDS_P1;SDS_P2;PMS_P1;PMS_P2;Temp;Humidity;BMP_temperature;BMP_pressure;BME280_temperature;BME280_humidity;BME280_pressure;Samples;Min_cycle;Max_cycle;Signal;HPM_P1;HPM_P2
2023/12/13 00:02:09;;;;;;;39.45;20.85;;;-0.60;99.90;;;;;;5028537;28;20017;-76
2023/12/13 00:04:35;;;;;;;41.63;20.48;;;-0.60;99.90;;;;;;5033086;28;20070;-74
2023/12/13 00:07:00;;;;;;;44.78;21.90;;;-0.50;99.90;;;;;;5032592;28;20025;-78
2023/12/13 00:09:26;;;;;;;44.05;21.13;;;-0.50;99.90;;;;;;5028543;28;20026;-74
2023/12/13 00:11:51;;;;;;;40.80;21.52;;;-0.50;99.90;;;;;;5026297;28;20463;-77
2023/12/13 00:14:18;;;;;;;37.55;19.52;;;-0.50;99.90;;;;;;5025632;28;20386;-74
2023/12/13 00:16:44;;;;;;;38.65;21.70;;;-0.50;99.90;;;;;;5027814;28;20029;-74
2023/12/13 00:19:10;;;;;;;39.83;21.27;;;-0.40;99.90;;;;;;5019527;28;20029;-78
2023/12/13 00:21:35;;;;;;;40.00;20.73;;;-0.40;99.90;;;;;;5019710;28;20379;-74
2023/12/13 00:24:01;;;;;;;32.33;19.95;;;-0.40;99.90;;;;;;5032153;28;20037;-78
2023/12/13 00:26:27;;;;;;;36.05;18.50;;;-0.40;99.90;;;;;;5032565;28;20022;-77
2023/12/13 00:28:53;;;;;;;47.13;20.90;;;-0.40;99.90;;;;;;5032695;28;20053;-74
2023/12/13 00:31:18;;;;;;;35.67;18.58;;;-0.40;99.90;;;;;;5032677;28;20022;-78
2023/12/13 00:33:44;;;;;;;38.00;19.15;;;-0.40;99.90;;;;;;5027911;28;20048;-78
2023/12/13 00:36:10;;;;;;;36.38;17.67;;;-0.40;99.90;;;;;;5031749;28;20026;-78
2023/12/13 00:38:35;;;;;;;38.17;20.38;;;-0.50;99.90;;;;;;5032485;28;20395;-78
2023/12/13 00:41:02;;;;;;;30.52;17.60;;;-0.50;99.90;;;;;;5048059;28;20391;-78
2023/12/13 00:43:27;;;;;;;31.92;17.08;;;-0.50;99.90;;;;;;5032427;28;20021;-75
2023/12/13 00:45:53;;;;;;;37.90;17.75;;;-0.40;99.90;;;;;;5032565;28;20511;-75
2023/12/13 00:48:19;;;;;;;34.65;18.15;;;-0.40;99.90;;;;;;5025276;28;20022;-75
2023/12/13 00:50:44;;;;;;;51.55;24.67;;;-0.30;99.90;;;;;;5032613;28;20033;-74
2023/12/13 00:53:12;;;;;;;47.38;23.52;;;-0.30;99.90;;;;;;5037299;28;20033;-75
2023/12/13 00:55:38;;;;;;;34.70;18.55;;;-0.40;99.90;;;;;;5019152;28;20506;-79
2023/12/13 00:58:03;;;;;;;36.55;18.88;;;-0.30;99.90;;;;;;5032253;28;20026;-75
2023/12/13 01:00:29;;;;;;;39.35;19.50;;;-0.30;99.90;;;;;;5035226;28;20132;-75
2023/12/13 01:02:55;;;;;;;48.50;22.95;;;-0.30;99.90;;;;;;5030844;28;20050;-76
2023/12/13 01:05:21;;;;;;;36.63;19.73;;;-0.30;99.90;;;;;;5036469;28;20076;-79
2023/12/13 01:07:46;;;;;;;40.67;20.27;;;-0.30;99.90;;;;;;5035913;28;20032;-75
2023/12/13 01:10:12;;;;;;;35.38;18.58;;;-0.20;99.90;;;;;;5036313;28;20100;-78
2023/12/13 01:12:41;;;;;;;38.88;16.65;;;-0.30;99.90;;;;;;5035902;28;20038;-79
2023/12/13 01:15:08;;;;;;;37.80;18.27;;;-0.20;99.90;;;;;;5035879;28;20041;-78
2023/12/13 01:17:33;;;;;;;37.22;18.33;;;-0.20;99.90;;;;;;5035844;28;20100;-76
2023/12/13 01:20:00;;;;;;;31.83;16.60;;;-0.20;99.90;;;;;;5035869;28;20522;-78
2023/12/13 01:22:26;;;;;;;32.17;16.65;;;-0.20;99.90;;;;;;5044638;28;20079;-79
2023/12/13 01:24:52;;;;;;;29.90;16.05;;;-0.20;99.90;;;;;;5031451;28;20021;-78
2023/12/13 01:27:17;;;;;;;31.73;16.27;;;-0.20;99.90;;;;;;5051073;28;20032;-75
2023/12/13 01:29:43;;;;;;;32.55;14.68;;;-0.20;99.90;;;;;;5035772;28;20084;-75
2023/12/13 01:32:08;;;;;;;31.10;15.25;;;-0.20;99.90;;;;;;5050759;28;20140;-79
2023/12/13 01:34:34;;;;;;;30.42;16.95;;;-0.20;99.90;;;;;;5035877;28;20406;-79
2023/12/13 01:37:01;;;;;;;32.13;15.65;;;-0.20;99.90;;;;;;5033466;28;20029;-75
2023/12/13 01:39:27;;;;;;;25.33;13.93;;;-0.20;99.90;;;;;;5028180;28;20029;-75
2023/12/13 01:41:52;;;;;;;30.83;14.95;;;-0.20;99.90;;;;;;5035326;28;20029;-76
2023/12/13 01:44:18;;;;;;;31.15;14.38;;;-0.10;99.90;;;;;;5035544;28;20022;-76
2023/12/13 01:46:46;;;;;;;30.67;14.68;;;-0.10;99.90;;;;;;5035547;28;20096;-78
2023/12/13 01:49:13;;;;;;;27.35;13.25;;;-0.10;99.90;;;;;;5035697;28;20029;-78
2023/12/13 01:51:40;;;;;;;29.95;12.65;;;-0.10;99.90;;;;;;5030808;28;20395;-75
2023/12/13 01:54:09;;;;;;;27.17;12.25;;;0.00;99.90;;;;;;5031054;28;20041;-78
2023/12/13 01:56:39;;;;;;;23.80;11.93;;;0.00;99.90;;;;;;5034057;28;20013;-78
2023/12/13 01:59:04;;;;;;;20.75;11.95;;;0.10;99.90;;;;;;5035335;28;20048;-78
2023/12/13 02:01:30;;;;;;;25.23;12.00;;;0.10;99.90;;;;;;5034713;28;20049;-75
2023/12/13 02:03:56;;;;;;;20.83;11.07;;;0.20;99.90;;;;;;5035206;28;20029;-78
2023/12/13 02:06:22;;;;;;;24.83;10.93;;;0.20;99.90;;;;;;5034100;28;20022;-75
2023/12/13 02:08:51;;;;;;;25.27;11.95;;;0.30;99.90;;;;;;5034982;28;20431;-79
2023/12/13 02:11:16;;;;;;;24.73;12.90;;;0.30;99.90;;;;;;5034342;28;20029;-79
2023/12/13 02:13:42;;;;;;;23.67;12.73;;;0.40;99.90;;;;;;5049961;28;20045;-78
2023/12/13 02:16:08;;;;;;;26.65;14.65;;;0.40;99.90;;;;;;5033830;28;20020;-78
2023/12/13 02:18:34;;;;;;;29.52;15.05;;;0.40;99.90;;;;;;5024311;28;20022;-76
2023/12/13 02:20:59;;;;;;;31.92;16.55;;;0.50;99.90;;;;;;5030244;28;20101;-76
2023/12/13 02:23:25;;;;;;;29.23;14.68;;;0.50;99.90;;;;;;5029489;28;20029;-78
2023/12/13 02:25:58;;;;;;;27.60;13.85;;;0.50;99.90;;;;;;5034377;28;20022;-79
2023/12/13 02:28:25;;;;;;;27.95;13.55;;;0.60;99.90;;;;;;5034535;28;20021;-78
2023/12/13 02:30:54;;;;;;;24.80;14.00;;;0.50;99.90;;;;;;5034830;28;20017;-78
2023/12/13 02:33:25;;;;;;;31.38;13.93;;;0.50;99.90;;;;;;5026495;28;20046;-75
2023/12/13 02:35:58;;;;;;;31.58;14.23;;;0.50;99.90;;;;;;5034677;28;20025;-79
2023/12/13 02:38:24;;;;;;;33.33;15.63;;;0.50;99.90;;;;;;5029737;28;20120;-75
2023/12/13 02:40:50;;;;;;;27.63;14.25;;;0.50;99.90;;;;;;5029107;28;20170;-79
2023/12/13 02:43:16;;;;;;;32.42;15.07;;;0.50;99.90;;;;;;5034814;28;20021;-79
2023/12/13 02:45:42;;;;;;;32.17;14.52;;;0.50;99.90;;;;;;5034352;28;20025;-75
2023/12/13 02:48:07;;;;;;;32.47;15.73;;;0.50;99.90;;;;;;5033308;28;20052;-77
2023/12/13 02:50:36;;;;;;;29.75;15.10;;;0.50;99.90;;;;;;5032732;28;20156;-79
2023/12/13 02:53:03;;;;;;;31.13;14.55;;;0.50;99.90;;;;;;5049354;28;20395;-79
2023/12/13 02:55:29;;;;;;;27.42;14.20;;;0.50;99.90;;;;;;5034321;28;20010;-79
2023/12/13 02:57:55;;;;;;;24.65;12.98;;;0.50;99.90;;;;;;5029171;28;20097;-76
2023/12/13 03:00:21;;;;;;;22.23;12.85;;;0.50;99.90;;;;;;5026795;28;20037;-76
2023/12/13 03:02:46;;;;;;;25.98;13.27;;;0.60;99.90;;;;;;5031864;28;20090;-75
2023/12/13 03:05:12;;;;;;;29.42;14.85;;;0.60;99.90;;;;;;5034171;28;20025;-78
2023/12/13 03:07:41;;;;;;;25.42;15.13;;;0.60;99.90;;;;;;5033909;28;20013;-79
2023/12/13 03:10:07;;;;;;;25.55;14.05;;;0.60;99.90;;;;;;5033924;28;20466;-75
2023/12/13 03:12:32;;;;;;;27.30;15.63;;;0.60;99.90;;;;;;5029044;28;20383;-75
2023/12/13 03:14:58;;;;;;;22.73;14.02;;;0.70;99.90;;;;;;5037215;28;20028;-79
2023/12/13 03:17:24;;;;;;;32.63;16.52;;;0.80;99.90;;;;;;5033480;28;20357;-78
2023/12/13 03:19:49;;;;;;;31.85;15.13;;;0.80;99.90;;;;;;5029369;28;20030;-75
2023/12/13 03:22:15;;;;;;;28.10;15.75;;;0.80;99.90;;;;;;5029283;28;20048;-79
2023/12/13 03:24:41;;;;;;;29.58;15.68;;;0.80;99.90;;;;;;5033526;28;20079;-75
2023/12/13 03:27:06;;;;;;;26.63;14.93;;;0.80;99.90;;;;;;5032600;28;20021;-79
2023/12/13 03:29:32;;;;;;;33.72;16.60;;;0.80;99.90;;;;;;5018861;28;20065;-75
2023/12/13 03:31:58;;;;;;;31.67;16.80;;;0.80;99.90;;;;;;5033198;28;20018;-78
2023/12/13 03:34:25;;;;;;;29.30;14.73;;;0.80;99.90;;;;;;5033522;28;20541;-76
2023/12/13 03:36:50;;;;;;;31.48;15.77;;;0.90;99.90;;;;;;5033342;28;20444;-78
2023/12/13 03:39:16;;;;;;;24.42;14.60;;;0.90;99.90;;;;;;5031382;28;20021;-75
2023/12/13 03:41:41;;;;;;;28.73;15.75;;;0.90;99.90;;;;;;5028477;28;20053;-78
2023/12/13 03:44:07;;;;;;;28.83;15.98;;;0.80;99.90;;;;;;5033563;28;20026;-79
2023/12/13 03:46:33;;;;;;;32.45;16.45;;;0.80;99.90;;;;;;5030259;28;20033;-76
2023/12/13 03:48:58;;;;;;;29.77;14.82;;;0.80;99.90;;;;;;5032169;28;20356;-78
2023/12/13 03:51:24;;;;;;;33.25;16.92;;;0.80;99.90;;;;;;5032943;28;20061;-75
2023/12/13 03:53:50;;;;;;;31.30;17.10;;;0.80;99.90;;;;;;5028710;28;20030;-78
2023/12/13 03:56:15;;;;;;;34.08;18.17;;;0.80;99.90;;;;;;5031590;28;20029;-78
2023/12/13 03:58:41;;;;;;;36.92;17.35;;;0.80;99.90;;;;;;5018271;28;20022;-74
2023/12/13 04:01:08;;;;;;;31.85;17.73;;;0.80;99.90;;;;;;5033196;28;20083;-74
2023/12/13 04:03:34;;;;;;;28.92;16.77;;;0.80;99.90;;;;;;5029811;28;20072;-78
2023/12/13 04:06:03;;;;;;;38.42;20.27;;;0.80;99.90;;;;;;5028461;28;20452;-78
2023/12/13 04:08:28;;;;;;;30.77;17.42;;;0.80;99.90;;;;;;5028192;28;20033;-75
2023/12/13 04:10:54;;;;;;;32.85;18.25;;;0.80;99.90;;;;;;5032906;28;20017;-74
2023/12/13 04:13:20;;;;;;;38.03;19.83;;;0.80;99.90;;;;;;5032455;28;20041;-78
2023/12/13 04:15:45;;;;;;;36.85;19.27;;;0.80;99.90;;;;;;5028570;28;20036;-79
2023/12/13 04:18:11;;;;;;;32.75;18.45;;;0.80;99.90;;;;;;5028105;28;20509;-75
2023/12/13 04:20:37;;;;;;;31.45;19.33;;;0.80;99.90;;;;;;5032923;28;20033;-78
2023/12/13 04:23:03;;;;;;;36.40;20.67;;;0.70;99.90;;;;;;5032576;28;20375;-78
2023/12/13 04:25:29;;;;;;;36.25;20.92;;;0.80;99.90;;;;;;5028216;28;20537;-78
2023/12/13 04:27:55;;;;;;;32.92;20.90;;;0.80;99.90;;;;;;5026253;28;20030;-74
2023/12/13 04:30:20;;;;;;;43.03;22.85;;;0.90;99.90;;;;;;5045750;28;20036;-74
2023/12/13 04:32:46;;;;;;;43.88;23.63;;;0.90;99.90;;;;;;5031970;28;20510;-74
2023/12/13 04:35:11;;;;;;;44.85;23.88;;;1.00;99.90;;;;;;5031417;28;20017;-77
2023/12/13 04:37:40;;;;;;;41.88;22.80;;;1.00;99.90;;;;;;5032153;28;20025;-75
2023/12/13 04:40:07;;;;;;;43.47;25.70;;;0.90;99.90;;;;;;5032530;28;20483;-75
2023/12/13 04:42:33;;;;;;;41.90;23.85;;;1.00;99.90;;;;;;5032245;28;20454;-78
2023/12/13 04:44:59;;;;;;;42.50;23.25;;;0.90;99.90;;;;;;5027921;28;20388;-75
2023/12/13 04:47:25;;;;;;;42.17;24.42;;;0.90;99.90;;;;;;5027132;28;20026;-75
2023/12/13 04:49:51;;;;;;;42.53;25.23;;;0.90;99.90;;;;;;5032523;28;20014;-75
2023/12/13 04:52:16;;;;;;;41.72;22.90;;;0.90;99.90;;;;;;5030993;28;20117;-75
2023/12/13 04:54:42;;;;;;;42.00;22.80;;;0.90;99.90;;;;;;5032292;28;20037;-78
2023/12/13 04:57:08;;;;;;;39.50;21.90;;;0.90;99.90;;;;;;5028644;28;20022;-78
2023/12/13 04:59:33;;;;;;;41.08;22.75;;;0.80;99.90;;;;;;5031057;28;20483;-75
2023/12/13 05:01:59;;;;;;;36.20;22.35;;;0.90;99.90;;;;;;5032092;28;20027;-75
2023/12/13 05:04:25;;;;;;;40.03;20.50;;;0.90;99.90;;;;;;5027891;28;20021;-74
2023/12/13 05:06:50;;;;;;;40.65;21.05;;;0.90;99.90;;;;;;5029956;28;20033;-74
2023/12/13 05:09:16;;;;;;;41.00;22.05;;;0.90;99.90;;;;;;5032398;28;20071;-75
2023/12/13 05:11:41;;;;;;;40.50;21.38;;;0.90;99.90;;;;;;5032019;28;20074;-74
2023/12/13 05:14:07;;;;;;;46.97;23.90;;;0.90;99.90;;;;;;5032282;28;20033;-75
2023/12/13 05:16:33;;;;;;;40.67;21.77;;;0.90;99.90;;;;;;5028227;28;20021;-76
2023/12/13 05:19:00;;;;;;;39.63;21.95;;;0.90;99.90;;;;;;5032334;28;20414;-78
2023/12/13 05:21:25;;;;;;;38.75;21.60;;;0.90;99.90;;;;;;5032006;28;20030;-74
2023/12/13 05:23:51;;;;;;;42.38;22.80;;;0.90;99.90;;;;;;5027732;28;20018;-74
2023/12/13 05:26:17;;;;;;;44.92;25.33;;;0.90;99.90;;;;;;5029822;28;20049;-75
2023/12/13 05:28:43;;;;;;;41.45;23.27;;;0.90;99.90;;;;;;5032041;28;20021;-75
2023/12/13 05:31:20;;;;;;;37.53;21.63;;;0.90;99.90;;;;;;5031796;28;20028;-78
2023/12/13 05:33:47;;;;;;;41.42;21.70;;;1.00;99.90;;;;;;5027231;28;20070;-75
2023/12/13 05:36:13;;;;;;;42.63;22.65;;;1.00;99.90;;;;;;5027762;28;20025;-75
2023/12/13 05:38:39;;;;;;;39.28;21.17;;;1.00;99.90;;;;;;5031899;28;20036;-75
2023/12/13 05:41:05;;;;;;;36.47;20.40;;;1.00;99.90;;;;;;5030155;28;20010;-75
2023/12/13 05:43:31;;;;;;;39.58;22.27;;;1.00;99.90;;;;;;5031939;28;20025;-78
2023/12/13 05:45:56;;;;;;;38.63;23.08;;;1.00;99.90;;;;;;5033855;28;20063;-78
2023/12/13 05:48:22;;;;;;;46.08;24.15;;;1.00;99.90;;;;;;5035618;28;20021;-78
2023/12/13 05:50:48;;;;;;;50.35;25.88;;;1.00;99.90;;;;;;5035424;28;20113;-75
2023/12/13 05:53:13;;;;;;;38.45;23.48;;;1.00;99.90;;;;;;5020753;28;20534;-78
2023/12/13 05:55:39;;;;;;;45.97;24.15;;;1.00;99.90;;;;;;5035358;28;20067;-75
2023/12/13 05:58:05;;;;;;;41.90;23.17;;;1.00;99.90;;;;;;5035107;28;20375;-78
2023/12/13 06:00:31;;;;;;;42.90;24.27;;;1.00;99.90;;;;;;5034858;28;20505;-78
2023/12/13 06:02:58;;;;;;;40.30;21.48;;;1.00;99.90;;;;;;5024515;28;20494;-75
2023/12/13 06:05:24;;;;;;;34.70;21.27;;;1.00;99.90;;;;;;5033112;28;20475;-74
2023/12/13 06:07:50;;;;;;;38.22;20.77;;;1.00;99.90;;;;;;5034783;28;20513;-75
2023/12/13 06:10:15;;;;;;;40.35;22.13;;;1.00;99.90;;;;;;5026048;28;20108;-75
2023/12/13 06:12:41;;;;;;;35.58;22.05;;;1.00;99.90;;;;;;5034446;28;20043;-78
2023/12/13 06:15:07;;;;;;;39.15;21.05;;;0.90;99.90;;;;;;5035046;28;20483;-75
2023/12/13 06:17:33;;;;;;;37.75;21.30;;;1.00;99.90;;;;;;5031425;28;20050;-77
2023/12/13 06:20:00;;;;;;;37.17;19.35;;;1.00;99.90;;;;;;5025828;28;20105;-78
2023/12/13 06:22:26;;;;;;;36.20;20.08;;;1.00;99.90;;;;;;5029364;28;20033;-74
2023/12/13 06:24:52;;;;;;;37.50;18.65;;;1.10;99.90;;;;;;5032655;28;20060;-75
2023/12/13 06:27:17;;;;;;;31.85;18.50;;;1.00;99.90;;;;;;5029872;28;20057;-74
2023/12/13 06:29:43;;;;;;;35.45;19.95;;;1.10;99.90;;;;;;5031539;28;20029;-78
2023/12/13 06:32:09;;;;;;;39.30;20.67;;;1.10;99.90;;;;;;5031149;28;20128;-76
2023/12/13 06:34:35;;;;;;;36.65;20.20;;;1.10;99.90;;;;;;5032617;28;20033;-76
2023/12/13 06:37:00;;;;;;;32.80;19.85;;;1.10;99.90;;;;;;5032550;28;20087;-76
2023/12/13 06:39:26;;;;;;;34.83;20.02;;;1.10;99.90;;;;;;5030429;28;20100;-76
2023/12/13 06:41:52;;;;;;;37.40;20.33;;;1.10;99.90;;;;;;5032500;28;20365;-79
2023/12/13 06:44:17;;;;;;;37.15;20.77;;;1.10;99.90;;;;;;5020779;28;20819;-79
2023/12/13 06:46:43;;;;;;;40.10;22.13;;;1.00;99.90;;;;;;5026978;28;20021;-78
2023/12/13 06:49:09;;;;;;;38.63;19.50;;;1.00;99.90;;;;;;5030988;28;20029;-78
2023/12/13 06:51:36;;;;;;;32.78;19.00;;;0.90;99.90;;;;;;5026311;28;20117;-78
2023/12/13 06:54:02;;;;;;;35.58;19.30;;;0.90;99.90;;;;;;5026454;28;20036;-79
2023/12/13 06:56:28;;;;;;;33.50;20.15;;;0.90;99.90;;;;;;5026295;28;20025;-78
2023/12/13 06:58:53;;;;;;;40.30;20.45;;;0.90;99.90;;;;;;5021174;28;20030;-78
2023/12/13 07:01:20;;;;;;;31.52;18.65;;;0.90;99.90;;;;;;5021771;28;20030;-79
2023/12/13 07:03:46;;;;;;;35.15;19.52;;;0.90;99.90;;;;;;5028500;28;20037;-79
2023/12/13 07:06:16;;;;;;;41.25;20.55;;;0.90;99.90;;;;;;5032635;28;20026;-78
2023/12/13 07:08:42;;;;;;;38.42;21.95;;;0.90;99.90;;;;;;5023356;28;20034;-80
2023/12/13 07:11:07;;;;;;;44.55;23.80;;;0.90;99.90;;;;;;5030236;28;20034;-79
2023/12/13 07:13:33;;;;;;;42.75;25.00;;;0.90;99.90;;;;;;5027333;28;20397;-78
2023/12/13 07:15:58;;;;;;;40.05;20.90;;;1.00;99.90;;;;;;5044277;28;20026;-79
2023/12/13 07:18:25;;;;;;;37.63;20.88;;;1.00;99.90;;;;;;5030544;28;20037;-79
2023/12/13 07:20:51;;;;;;;33.15;18.02;;;1.00;99.90;;;;;;5030930;28;20097;-79
2023/12/13 07:23:16;;;;;;;31.85;19.23;;;1.00;99.90;;;;;;5025454;28;20183;-79
2023/12/13 07:25:42;;;;;;;31.98;17.00;;;1.00;99.90;;;;;;5030173;28;20033;-78
2023/12/13 07:28:08;;;;;;;29.63;16.67;;;1.00;99.90;;;;;;5029793;28;20034;-78
2023/12/13 07:30:34;;;;;;;30.95;17.42;;;1.00;99.90;;;;;;5028769;28;20537;-76
2023/12/13 07:33:00;;;;;;;27.08;16.50;;;1.00;99.90;;;;;;5028929;28;20058;-75
2023/12/13 07:35:26;;;;;;;33.83;17.13;;;1.00;99.90;;;;;;5030163;28;20032;-77
2023/12/13 07:37:52;;;;;;;34.47;19.25;;;1.00;99.90;;;;;;5029081;28;20425;-76
2023/12/13 07:40:18;;;;;;;30.92;17.17;;;1.00;99.90;;;;;;5029840;28;20483;-76
2023/12/13 07:42:46;;;;;;;31.48;18.83;;;1.10;99.90;;;;;;5026589;28;20467;-79
2023/12/13 07:45:13;;;;;;;33.20;18.08;;;1.10;99.90;;;;;;5032700;28;20418;-79
2023/12/13 07:47:39;;;;;;;30.25;17.00;;;1.10;99.90;;;;;;5033010;28;20075;-79
2023/12/13 07:50:08;;;;;;;25.75;15.90;;;1.10;99.90;;;;;;5028171;28;20022;-79
2023/12/13 07:52:33;;;;;;;28.50;16.33;;;1.10;99.90;;;;;;5023491;28;20068;-79
2023/12/13 07:54:59;;;;;;;29.52;16.88;;;1.10;99.90;;;;;;5030066;28;20026;-79
2023/12/13 07:57:24;;;;;;;30.08;17.30;;;1.20;99.90;;;;;;5029662;28;20596;-79
2023/12/13 07:59:50;;;;;;;38.90;18.15;;;1.20;99.90;;;;;;5029574;28;20025;-79
2023/12/13 08:02:20;;;;;;;40.78;21.90;;;1.20;99.90;;;;;;5030621;28;20044;-79
2023/12/13 08:04:46;;;;;;;38.95;20.90;;;1.20;99.90;;;;;;5029175;28;20116;-79
2023/12/13 08:07:12;;;;;;;36.53;20.88;;;1.20;99.90;;;;;;5030866;28;20108;-79
2023/12/13 08:09:37;;;;;;;37.85;21.17;;;1.10;99.90;;;;;;5030671;28;20104;-79
2023/12/13 08:12:03;;;;;;;45.42;23.98;;;1.10;99.90;;;;;;5032790;28;20030;-79
2023/12/13 08:14:30;;;;;;;51.25;26.35;;;1.20;99.90;;;;;;5027829;28;20499;-79
2023/12/13 08:16:57;;;;;;;52.92;26.73;;;1.20;99.90;;;;;;5024275;28;20017;-79
2023/12/13 08:19:23;;;;;;;51.40;26.40;;;1.20;99.90;;;;;;5027373;28;20033;-79
2023/12/13 08:21:48;;;;;;;51.55;25.80;;;1.20;99.90;;;;;;5028143;28;20022;-79
2023/12/13 08:24:14;;;;;;;46.25;23.40;;;1.20;99.90;;;;;;5030940;28;20100;-79
2023/12/13 08:26:40;;;;;;;38.80;21.02;;;1.20;99.90;;;;;;5030975;28;20022;-79
2023/12/13 08:29:05;;;;;;;32.50;16.77;;;1.20;99.90;;;;;;5032240;28;20451;-79
2023/12/13 08:31:31;;;;;;;30.17;17.55;;;1.30;99.90;;;;;;5027577;28;20105;-79
2023/12/13 08:33:57;;;;;;;27.20;16.63;;;1.30;99.90;;;;;;5023190;28;20059;-79
2023/12/13 08:36:23;;;;;;;24.70;15.15;;;1.30;99.90;;;;;;5032243;28;20360;-79
2023/12/13 08:38:48;;;;;;;24.77;13.65;;;1.30;99.90;;;;;;5029421;28;20045;-79
2023/12/13 08:41:15;;;;;;;28.42;14.75;;;1.40;99.90;;;;;;5032149;28;20459;-79
2023/12/13 08:43:41;;;;;;;29.67;16.55;;;1.40;99.90;;;;;;5032102;28;20045;-79
2023/12/13 08:46:07;;;;;;;32.45;17.20;;;1.40;99.90;;;;;;5045989;28;20072;-79
2023/12/13 08:48:32;;;;;;;30.10;16.52;;;1.50;99.90;;;;;;5031757;28;20471;-79
2023/12/13 08:50:58;;;;;;;29.77;17.60;;;1.50;99.90;;;;;;5026996;28;20022;-79
2023/12/13 08:53:24;;;;;;;33.22;19.15;;;1.50;99.90;;;;;;5023270;28;20041;-79
2023/12/13 08:55:50;;;;;;;28.33;17.63;;;1.50;99.90;;;;;;5027739;28;20823;-79
2023/12/13 08:58:16;;;;;;;30.80;16.67;;;1.50;99.90;;;;;;5023211;28;20026;-79
2023/12/13 09:00:41;;;;;;;31.08;16.55;;;1.60;99.90;;;;;;5027233;28;20103;-79
2023/12/13 09:03:08;;;;;;;24.05;14.27;;;1.60;99.90;;;;;;5022077;28;20442;-79
2023/12/13 09:05:35;;;;;;;26.02;16.15;;;1.60;99.90;;;;;;5031978;28;20490;-79
2023/12/13 09:08:00;;;;;;;22.63;14.38;;;1.60;99.90;;;;;;5032145;28;20100;-79
2023/12/13 09:10:26;;;;;;;25.70;14.32;;;1.70;99.90;;;;;;5032063;28;20517;-79
2023/12/13 09:12:52;;;;;;;30.35;15.30;;;1.70;99.90;;;;;;5031920;28;20479;-79
2023/12/13 09:15:18;;;;;;;33.50;17.52;;;1.70;99.90;;;;;;5031849;28;20029;-79
2023/12/13 09:17:47;;;;;;;24.08;13.93;;;1.70;99.90;;;;;;5047292;28;20029;-79
2023/12/13 09:20:15;;;;;;;24.77;14.07;;;1.80;99.90;;;;;;5047662;28;20025;-79
2023/12/13 09:22:44;;;;;;;51.47;24.65;;;1.80;99.90;;;;;;5035770;28;20047;-79
2023/12/13 09:25:14;;;;;;;32.08;17.95;;;1.80;99.90;;;;;;5050983;28;20041;-79
2023/12/13 09:27:44;;;;;;;71.85;36.88;;;1.90;99.90;;;;;;5035652;28;20017;-79
2023/12/13 09:30:11;;;;;;;45.42;22.05;;;1.90;99.90;;;;;;5035108;28;20501;-79
2023/12/13 09:32:40;;;;;;;40.58;23.02;;;1.90;99.90;;;;;;5035202;28;20053;-79
2023/12/13 09:35:06;;;;;;;36.80;21.20;;;2.00;99.90;;;;;;5035363;28;20025;-79
2023/12/13 09:37:32;;;;;;;37.15;20.83;;;2.00;99.90;;;;;;5035117;28;20497;-79
2023/12/13 09:40:01;;;;;;;37.28;21.25;;;2.00;99.90;;;;;;5031062;28;20480;-79
2023/12/13 09:42:27;;;;;;;38.55;22.98;;;2.00;99.90;;;;;;5028243;28;20017;-79
2023/12/13 09:44:53;;;;;;;41.13;21.38;;;2.00;99.90;;;;;;5030737;28;20432;-79
2023/12/13 09:47:21;;;;;;;39.88;22.73;;;2.00;99.90;;;;;;5028166;28;20025;-79
2023/12/13 09:49:48;;;;;;;39.15;23.15;;;2.10;99.90;;;;;;5034331;28;20112;-79
2023/12/13 09:52:18;;;;;;;39.78;22.52;;;2.10;99.90;;;;;;5032055;28;20037;-76
2023/12/13 09:54:45;;;;;;;38.15;22.40;;;2.10;99.90;;;;;;5035062;28;20021;-79
2023/12/13 09:57:12;;;;;;;36.90;20.58;;;2.10;99.90;;;;;;5050610;28;20014;-78
2023/12/13 09:59:38;;;;;;;34.42;19.67;;;2.10;99.90;;;;;;5035370;28;20014;-79
2023/12/13 10:02:14;;;;;;;39.40;20.95;;;2.10;99.90;;;;;;5035400;28;20017;-76
2023/12/13 10:04:40;;;;;;;36.90;22.48;;;2.10;99.90;;;;;;5035280;28;20381;-79
2023/12/13 10:07:07;;;;;;;34.78;21.95;;;2.20;99.90;;;;;;5030639;28;20025;-79
2023/12/13 10:09:34;;;;;;;39.25;20.20;;;2.20;99.90;;;;;;5032917;28;20026;-79
2023/12/13 10:12:00;;;;;;;33.45;20.23;;;2.30;99.90;;;;;;5030629;28;20416;-79
2023/12/13 10:14:26;;;;;;;34.03;20.08;;;2.30;99.90;;;;;;5034195;28;20120;-79
2023/12/13 10:16:52;;;;;;;39.38;23.33;;;2.30;99.90;;;;;;5034845;28;20032;-76
2023/12/13 10:19:18;;;;;;;36.65;21.67;;;2.30;99.90;;;;;;5033547;28;20018;-79
2023/12/13 10:21:48;;;;;;;38.53;21.85;;;2.40;99.90;;;;;;5030033;28;20058;-76
2023/12/13 10:24:15;;;;;;;37.80;21.48;;;2.40;99.90;;;;;;5037630;28;20076;-79
2023/12/13 10:26:41;;;;;;;39.53;22.02;;;2.40;99.90;;;;;;5049738;28;20104;-76
2023/12/13 10:29:07;;;;;;;40.30;21.48;;;2.40;99.90;;;;;;5041851;28;20555;-79
2023/12/13 10:31:33;;;;;;;32.65;18.08;;;2.40;99.90;;;;;;5029602;28;21746;-76
2023/12/13 10:33:59;;;;;;;28.58;17.90;;;2.40;99.90;;;;;;5013848;28;20042;-79
2023/12/13 10:36:29;;;;;;;34.88;18.63;;;2.50;99.90;;;;;;5027235;28;20022;-76
2023/12/13 10:38:56;;;;;;;32.05;18.77;;;2.50;99.90;;;;;;5034754;28;20079;-79
2023/12/13 10:41:26;;;;;;;32.00;16.88;;;2.50;99.90;;;;;;5034348;28;20498;-76
2023/12/13 10:43:56;;;;;;;31.48;17.05;;;2.60;99.90;;;;;;5034710;28;20053;-76
2023/12/13 10:46:25;;;;;;;29.15;17.42;;;2.60;99.90;;;;;;5034409;28;20031;-76
2023/12/13 10:48:52;;;;;;;30.73;16.92;;;2.60;99.90;;;;;;5031939;28;20030;-79
2023/12/13 10:51:18;;;;;;;39.85;21.77;;;2.60;99.90;;;;;;5029885;28;20064;-76
2023/12/13 10:53:45;;;;;;;34.67;20.02;;;2.60;99.90;;;;;;5030232;28;20037;-76
2023/12/13 10:56:13;;;;;;;36.58;17.42;;;2.60;99.90;;;;;;5034291;28;20029;-76
2023/12/13 10:58:39;;;;;;;30.70;16.10;;;2.70;99.90;;;;;;5034093;28;20013;-76
2023/12/13 11:01:07;;;;;;;25.60;14.00;;;2.60;99.90;;;;;;5032756;28;20463;-79
2023/12/13 11:04:04;;;;;;;26.52;15.05;;;2.60;99.90;;;;;;5029701;28;20033;-76
2023/12/13 11:06:30;;;;;;;26.90;13.43;;;2.70;99.90;;;;;;5020942;28;20076;-76
2023/12/13 11:08:55;;;;;;;24.48;14.65;;;2.70;99.90;;;;;;5027500;28;20021;-76
2023/12/13 11:11:27;;;;;;;24.25;14.25;;;2.80;99.90;;;;;;5024152;28;20395;-79
2023/12/13 11:13:53;;;;;;;24.23;13.75;;;2.80;99.90;;;;;;5016810;28;20398;-76
2023/12/13 11:16:20;;;;;;;25.35;14.68;;;2.90;99.90;;;;;;5026001;28;20026;-79
2023/12/13 11:18:49;;;;;;;24.60;13.82;;;3.00;99.90;;;;;;5020874;28;20455;-76
2023/12/13 11:21:26;;;;;;;22.17;14.60;;;3.10;99.90;;;;;;5033917;28;20495;-76
2023/12/13 11:23:57;;;;;;;30.15;17.15;;;3.20;99.90;;;;;;5029492;28;20022;-76
2023/12/13 11:26:23;;;;;;;37.83;19.25;;;3.20;99.90;;;;;;5033780;28;20072;-76
2023/12/13 11:28:54;;;;;;;33.92;20.33;;;3.30;99.90;;;;;;5033661;28;20021;-76
2023/12/13 11:31:24;;;;;;;41.58;22.13;;;3.30;99.90;;;;;;5030986;28;20021;-76
2023/12/13 11:33:56;;;;;;;48.28;26.92;;;3.30;99.90;;;;;;5028729;28;20111;-79
2023/12/13 11:36:24;;;;;;;40.53;23.45;;;3.20;99.90;;;;;;5030792;28;20017;-79
2023/12/13 11:38:52;;;;;;;33.20;18.92;;;3.30;99.90;;;;;;5022390;28;20365;-79
2023/12/13 11:41:18;;;;;;;31.23;18.27;;;3.20;99.90;;;;;;5030704;28;20916;-76
2023/12/13 11:43:44;;;;;;;33.80;20.70;;;3.30;99.90;;;;;;5032544;28;20028;-78
2023/12/13 11:46:12;;;;;;;33.70;20.55;;;3.30;99.90;;;;;;5033374;28;20025;-76
2023/12/13 11:48:37;;;;;;;40.88;24.10;;;3.30;99.90;;;;;;5028668;28;20026;-79
2023/12/13 11:51:03;;;;;;;30.90;18.10;;;3.30;99.90;;;;;;5046925;28;20028;-79
2023/12/13 11:53:29;;;;;;;38.03;24.25;;;3.40;99.90;;;;;;5031754;28;20037;-79
2023/12/13 11:55:56;;;;;;;37.28;22.30;;;3.40;99.90;;;;;;5028665;28;20014;-78
2023/12/13 11:58:22;;;;;;;37.28;21.33;;;3.40;99.90;;;;;;5031928;28;20117;-79
2023/12/13 12:00:48;;;;;;;31.05;19.20;;;3.40;99.90;;;;;;5028551;28;20105;-76
2023/12/13 12:03:14;;;;;;;30.15;18.30;;;3.40;99.90;;;;;;5032804;28;20100;-79
2023/12/13 12:05:42;;;;;;;32.38;19.85;;;3.50;99.90;;;;;;5032996;28;20448;-76
2023/12/13 12:08:08;;;;;;;29.45;18.08;;;3.50;99.90;;;;;;5028404;28;20033;-76
2023/12/13 12:10:34;;;;;;;32.15;20.27;;;3.50;99.90;;;;;;5032454;28;20025;-79
2023/12/13 12:13:01;;;;;;;37.88;22.25;;;3.50;99.90;;;;;;5032878;28;20030;-79
2023/12/13 12:15:27;;;;;;;40.25;22.80;;;3.50;99.90;;;;;;5032723;28;20025;-79
2023/12/13 12:17:54;;;;;;;44.60;25.95;;;3.50;99.90;;;;;;5032623;28;20387;-79
2023/12/13 12:20:21;;;;;;;48.15;27.73;;;3.50;99.90;;;;;;5020430;28;20090;-76
2023/12/13 12:22:47;;;;;;;48.58;26.25;;;3.50;99.90;;;;;;5032485;28;20021;-78
2023/12/13 12:25:13;;;;;;;43.30;26.35;;;3.50;99.90;;;;;;5020680;28;20076;-76
2023/12/13 12:27:49;;;;;;;44.08;27.73;;;3.50;99.90;;;;;;5030647;28;20029;-77
2023/12/13 12:30:17;;;;;;;46.63;28.02;;;3.50;99.90;;;;;;5016545;28;20396;-77
2023/12/13 12:32:44;;;;;;;48.42;27.40;;;3.50;99.90;;;;;;5020956;28;20088;-79